Flight AZ13229

 

  • Submitted By: Diego Paparella
  • Departure Airport: Leonardo da Vinci (LIRF)
  • Arrival Airport: Brisbane International Airport (YBBN)
  • Aircraft: B777-200 (EI-DBK)
  • Flight Time: 18.16.25
  • Date Submitted: 02/03/2014
  • Route: OKUNO UL5 SPL UM730 RAMAP UL614 NISVA N605 SOBLO B143 IDLER N319 ADEKI N644 DI M875 BUTOP A589 DPN R460 CEA L507 BKK R468 TSN M768 DN J61 JANUS J138 NTN T13 EML UY409 EAGLE Y177 SMOKA
  • Status: Accepted
Flight Details
Gross Revenue:
(273 load / € 560.00 per unit
€ 152,880.00
Fuel Cost:
(128264 fuel used @ 1.1 / unit)
€ 141,090.40
Flight Details

 

  • Log Data: DEP/LIRF GATE/705 RWY/16R SID/XIBRI5B.OKU5A STEP/FL310.330.350.370.390 /// ARR/YBBN STAR/QUIET7 APPR/ILSY RWY/19 GATE/75 /// ALT/YSSY
  • Network: IVAO
Additional Log Information:

 

View Log

[19:36] - PMDG 777-243LR Alitalia (Fictional)
[19:36] - Flight AZ13229 is ready to depart LIRF with a final destination of YBBN.
[19:36] - Parking Brake Applied
[19:36] - Boarding
[19:47] - Parking Brake Released
[19:50] - Parking Brake Applied
[19:53] - Parking Brake Released
[19:54] - Taxiing to Runway
[19:59] - Flaps to position 1
[19:59] - Flaps to position 2
[20:02] - Taking Off with 273 passengers on board
[20:02] - Take off at 187kts, with a pitch of 10deg and 139829kgs of fuel on board
[20:02] - Wind Heading 212 | Wind Speed 10kts | Temperature 11 deg C
[20:03] - Climbing to TOC
[20:03] - Gear up at 899AGL
[20:03] - Spoilers ON 991ft, hdg 166 and 200kts
[20:03] - Spoilers OFF 1280ft, hdg 181 and 203kts
[20:03] - Flaps to position 1 at 1932ft and 226kts
[20:03] - Flaps to position 0 at 2129ft and 243kts
[20:05] - Spoilers ON 7014ft, hdg 193 and 258kts
[20:05] - Spoilers OFF 7536ft, hdg 149 and 258kts
[20:06] - Spoilers ON 8606ft, hdg 115 and 257kts
[20:06] - Spoilers OFF 8799ft, hdg 117 and 256kts
[20:07] - Spoilers ON 10551ft, hdg 96 and 283kts
[20:07] - Spoilers OFF 10758ft, hdg 84 and 298kts
[20:08] - Spoilers ON 11762ft, hdg 52 and 326kts
[20:08] - Spoilers OFF 11991ft, hdg 40 and 326kts
[20:08] - Spoilers ON 12162ft, hdg 33 and 327kts
[20:08] - Spoilers OFF 12264ft, hdg 29 and 327kts
[20:10] - Spoilers ON 16755ft, hdg 17 and 326kts
[20:10] - Spoilers OFF 16969ft, hdg 11 and 325kts
[20:12] - Spoilers ON 21420ft, hdg 25 and 321kts
[20:12] - Spoilers OFF 21214ft, hdg 14 and 320kts
[20:13] - Spoilers ON 20787ft, hdg 47 and 342kts
[20:13] - Spoilers OFF 21640ft, hdg 60 and 327kts
[20:13] - Spoilers ON 21775ft, hdg 54 and 319kts
[20:13] - Spoilers OFF 22168ft, hdg 40 and 308kts
[20:14] - Spoilers ON 23340ft, hdg 52 and 274kts
[20:14] - Spoilers OFF 23343ft, hdg 54 and 274kts
[20:34] - Spoilers ON 30614ft, hdg 63 and 313kts
[20:35] - Spoilers OFF 30604ft, hdg 60 and 313kts
[20:43] - Spoilers ON 28353ft, hdg 98 and 312kts
[20:44] - Spoilers OFF 26434ft, hdg 92 and 312kts
[20:44] - Spoilers ON 26903ft, hdg 86 and 313kts
[20:45] - Spoilers OFF 26726ft, hdg 86 and 312kts
[20:45] - Spoilers ON 26624ft, hdg 94 and 312kts
[20:45] - Spoilers OFF 27162ft, hdg 93 and 312kts
[20:45] - Spoilers ON 28806ft, hdg 91 and 314kts
[20:46] - Spoilers OFF 28268ft, hdg 39 and 313kts
[20:49] - Spoilers ON 28573ft, hdg 86 and 313kts
[20:49] - Spoilers OFF 28780ft, hdg 87 and 313kts
[21:00] - Spoilers ON 27811ft, hdg 98 and 313kts
[21:00] - Spoilers OFF 27670ft, hdg 101 and 313kts
[21:11] - Spoilers ON 28336ft, hdg 110 and 314kts
[21:11] - Spoilers OFF 28527ft, hdg 100 and 313kts
[01:47] - Spoilers ON 32388ft, hdg 123 and 303kts
[01:47] - Spoilers OFF 32385ft, hdg 121 and 302kts
[02:00] - Mid Air Refuel! 32451AGL
[02:21] - Spoilers ON 32303ft, hdg 130 and 302kts
[02:21] - Spoilers OFF 32306ft, hdg 126 and 301kts
[02:23] - Spoilers ON 32293ft, hdg 122 and 301kts
[02:24] - Spoilers OFF 32300ft, hdg 116 and 304kts
[02:24] - Spoilers ON 32293ft, hdg 121 and 304kts
[02:24] - Spoilers OFF 32297ft, hdg 114 and 305kts
[02:24] - Spoilers ON 32296ft, hdg 121 and 306kts
[02:24] - Spoilers OFF 32290ft, hdg 116 and 305kts
[02:24] - Spoilers ON 32294ft, hdg 121 and 305kts
[02:25] - Spoilers OFF 32286ft, hdg 119 and 300kts
[02:32] - Spoilers ON 32293ft, hdg 128 and 301kts
[02:32] - Spoilers OFF 32280ft, hdg 131 and 301kts
[02:40] - Spoilers ON 32388ft, hdg 135 and 302kts
[02:40] - Spoilers OFF 32385ft, hdg 130 and 302kts
[02:54] - Spoilers ON 32591ft, hdg 130 and 298kts
[02:55] - Spoilers OFF 32595ft, hdg 117 and 298kts
[02:55] - Spoilers ON 32585ft, hdg 111 and 298kts
[02:55] - Spoilers OFF 32591ft, hdg 114 and 298kts
[02:55] - Spoilers ON 32598ft, hdg 123 and 301kts
[02:56] - Spoilers OFF 32595ft, hdg 111 and 300kts
[02:56] - Spoilers ON 32592ft, hdg 104 and 301kts
[02:56] - Spoilers OFF 32608ft, hdg 125 and 303kts
[02:56] - Spoilers ON 32599ft, hdg 133 and 299kts
[02:58] - Spoilers OFF 32599ft, hdg 114 and 300kts
[02:58] - Spoilers ON 32611ft, hdg 115 and 302kts
[02:58] - Spoilers OFF 32631ft, hdg 111 and 302kts
[02:58] - Spoilers ON 32635ft, hdg 111 and 303kts
[02:59] - Spoilers OFF 32631ft, hdg 128 and 307kts
[02:59] - Spoilers ON 32618ft, hdg 140 and 307kts
[02:59] - Spoilers OFF 32634ft, hdg 129 and 304kts
[02:59] - Spoilers ON 32611ft, hdg 136 and 304kts
[03:00] - Spoilers OFF 32628ft, hdg 130 and 301kts
[03:00] - Spoilers ON 32638ft, hdg 138 and 300kts
[03:00] - Spoilers OFF 32638ft, hdg 128 and 298kts
[03:00] - Spoilers ON 32638ft, hdg 122 and 296kts
[03:00] - Spoilers OFF 32631ft, hdg 133 and 297kts
[03:01] - Spoilers ON 32637ft, hdg 124 and 298kts
[03:01] - Spoilers OFF 32651ft, hdg 132 and 298kts
[03:01] - Spoilers ON 32631ft, hdg 141 and 301kts
[03:01] - Spoilers OFF 32635ft, hdg 133 and 300kts
[03:01] - Spoilers ON 32657ft, hdg 135 and 302kts
[03:01] - Spoilers OFF 32645ft, hdg 130 and 303kts
[03:01] - Spoilers ON 32648ft, hdg 123 and 302kts
[03:02] - Spoilers OFF 32637ft, hdg 130 and 303kts
[03:02] - Spoilers ON 32631ft, hdg 142 and 304kts
[03:02] - Spoilers OFF 32628ft, hdg 123 and 307kts
[03:02] - Spoilers ON 32648ft, hdg 128 and 307kts
[03:04] - Spoilers OFF 32661ft, hdg 133 and 301kts
[03:12] - Spoilers ON 32723ft, hdg 134 and 301kts
[03:12] - Spoilers OFF 32723ft, hdg 129 and 301kts
[03:24] - Spoilers ON 32598ft, hdg 116 and 300kts
[03:24] - Spoilers OFF 32599ft, hdg 119 and 300kts
[03:37] - Spoilers ON 34531ft, hdg 128 and 289kts
[03:38] - Spoilers OFF 34563ft, hdg 133 and 287kts
[05:33] - Spoilers ON 34948ft, hdg 135 and 288kts
[05:33] - Spoilers OFF 34941ft, hdg 132 and 288kts
[06:22] - Spoilers ON 34914ft, hdg 114 and 288kts
[06:22] - Spoilers OFF 34911ft, hdg 116 and 288kts
[10:38] - Spoilers ON 36824ft, hdg 135 and 275kts
[10:38] - Spoilers OFF 36811ft, hdg 137 and 275kts
[10:49] - Spoilers ON 36893ft, hdg 104 and 273kts
[10:49] - Spoilers OFF 36853ft, hdg 104 and 273kts
[10:50] - TOC reached
[10:50] - Cruise started
[12:03] - Spoilers ON 38947ft, hdg 110 and 262kts
[12:03] - Spoilers OFF 38947ft, hdg 109 and 262kts
[13:31] - TOD reached
[13:31] - Descending to destination
[13:33] - Spoilers ON 34924ft, hdg 116 and 266kts
[13:43] - Spoilers OFF 17556ft, hdg 130 and 278kts
[13:43] - Spoilers ON 17530ft, hdg 130 and 278kts
[13:44] - Spoilers OFF 16467ft, hdg 130 and 257kts
[13:44] - Spoilers ON 16082ft, hdg 130 and 265kts
[13:45] - Spoilers OFF 14679ft, hdg 131 and 250kts
[13:46] - Spoilers ON 13451ft, hdg 130 and 276kts
[13:49] - Spoilers OFF 11109ft, hdg 129 and 265kts
[13:49] - Spoilers ON 11086ft, hdg 129 and 266kts
[13:50] - Spoilers OFF 9852ft, hdg 111 and 247kts
[13:50] - Spoilers ON 9839ft, hdg 111 and 248kts
[13:51] - Spoilers OFF 8176ft, hdg 112 and 230kts
[13:53] - Spoilers ON 7034ft, hdg 109 and 263kts
[13:55] - Landing Shortly
[13:55] - Flaps to position 1 at 4698ft and 209kts
[13:55] - Flaps to position 2 at 4423ft and 197kts
[13:55] - Spoilers OFF 4275ft, hdg 116 and 179kts
[13:58] - Spoilers ON 2582ft, hdg 112 and 171kts
[13:58] - Spoilers OFF 2487ft, hdg 108 and 167kts
[13:58] - Spoilers ON 2408ft, hdg 123 and 168kts
[13:58] - Flaps to position 3 at 2405ft and 173kts
[13:58] - Spoilers OFF 2408ft, hdg 132 and 167kts
[13:59] - Spoilers ON 2559ft, hdg 181 and 174kts
[13:59] - Spoilers OFF 2556ft, hdg 184 and 174kts
[13:59] - Gear down at 2523AGL
[14:00] - Flaps to position 4 at 1903ft and 147kts
[14:02] - Flaps to position 5 at 751ft and 139kts
[14:02] - Flaps to position 6 at 676ft and 139kts
[14:03] - Landed at 130 kias, at -99fpm. With 12981kgs of fuel onboard and a pitch angle of 4deg.
[14:03] - Wind Heading 119 | Wind Speed 7kts | Temperature 23 deg C
[14:03] - Spoilers ON 16ft, hdg 196 and 129kts
[14:04] - Taxiing to Gate
[14:04] - Spoilers OFF 16ft, hdg 224 and 0kts
[14:08] - Parking Brake Applied
[14:08] - Arrived safely at YBBN. We hope you enjoyed your flight!
[14:08] - PMDG 777-243LR Alitalia (Fictional)
[14:08] - MaxSim Rate: 1x
[14:08] - ver 1.0.1.8

Comments

Commenter Comment
Diego Paparella PBN/A1B1D1S2T1 NAV/RNVD1E2A1 DOF/140302 REG/EIDBK EET/LIBB0012 LDZO0023 LQSB0034 LYBA0043 LBSR0103 UKFV0143 URRV0213 UGGG0234 UBBA0311 UTAK0338 UTAA0405 UTAV0443 OAKX0500 OPLR0539 VIDF0611 VECF0713 VGFR0754 VECF0805 VYYF0816 VTBB0909 VDPP0943 VVTS1013 WSJC1048 WBFC1117 WAAF1140 YBBB1356 SEL/CJAE RMK/TCAS EQPT)
Diego Paparella LIRF 011820Z 24016KT 9999 SCT035 11/06 Q0997 NOSIG
Diego Paparella YBBN 021200Z 12008KT 9999 FEW027 SCT047 24/18 Q1018
Route Map